Thursday, November 23, 2017, 1:26 PM EST
Back to Local

KPQI, Presque Isle

Location: Presque Isle, ME, United States Lat: 46.683
Local Time: 1:26 PM EST (18:26 GMT) Lon: -68.05
Time Zone: US/Eastern Elev: 534 ft

Show me the last for .
Show Decoded

2017-11-23 12:56 METAR KPQI 231756Z AUTO 30011KT 9SM -SN OVC023 M04/M08 A2985 RMK AO2 SLP154
                 P0000 60000 T10441083 11044 21050 56009 FZRANO =
2017-11-23 11:56 METAR KPQI 231656Z AUTO 29012G17KT 9SM -SN BKN019 OVC027 M04/M08 A2986 RMK AO2
                 SLP157 P0000 T10441083 FZRANO =
2017-11-23 10:56 METAR KPQI 231556Z AUTO 29010KT 9SM -SN OVC023 M04/M08 A2987 RMK AO2 SLP160
                 P0000 T10441083 FZRANO TSNO =
2017-11-23 08:56 METAR KPQI 231356Z AUTO 30008KT 9SM -SN OVC023 M05/M08 A2987 RMK AO2 SLP160
                 P0000 T10501078 FZRANO =
2017-11-23 07:56 METAR KPQI 231256Z AUTO 32013G19KT 9SM -SN OVC023 M05/M08 A2986 RMK AO2 SLP157
                 P0000 T10501083 FZRANO =
2017-11-23 06:56 METAR KPQI 231156Z AUTO 30012G20KT 9SM -SN OVC021 M05/M08 A2984 RMK AO2 SNB17
                 SLP151 P0000 60000 70028 T10501078 11011 21050 51018 FZRANO =
2017-11-23 05:56 METAR KPQI 231056Z AUTO 30010KT 10SM BKN017 OVC025 M05/M08 A2983 RMK AO2 SLP146
                 T10501078 FZRANO =
2017-11-23 05:43 METAR KPQI 231043Z AUTO 31013G18KT 10SM OVC016 M05/M07 A2982 RMK AO2 FZRANO =
2017-11-23 05:34 METAR KPQI 231034Z AUTO 31009KT 10SM OVC014 M05/M07 A2982 RMK AO2 FZRANO =
2017-11-23 04:56 METAR KPQI 230956Z AUTO 31007G20KT 10SM BKN019 M05/M07 A2981 RMK AO2 SLP139
                 T10501072 FZRANO =
2017-11-23 04:32 METAR KPQI 230932Z AUTO 30015G21KT 10SM BKN017 M05/M07 A2979 RMK AO2 FZRANO =
2017-11-23 03:56 METAR KPQI 230856Z AUTO 31013G20KT 10SM SCT017 OVC055 M04/M07 A2979 RMK AO2
                 SLP131 T10391067 51020 FZRANO =
2017-11-23 03:23 METAR KPQI 230823Z AUTO 30013KT 10SM OVC015 M03/M06 A2978 RMK AO2 FZRANO =
2017-11-23 02:56 METAR KPQI 230756Z AUTO 31011G17KT 10SM OVC013 M03/M05 A2977 RMK AO2 SLP126
                 T10281050 FZRANO =
2017-11-23 01:56 METAR KPQI 230656Z AUTO 31012G18KT 10SM OVC011 M02/M04 A2975 RMK AO2 SLP120
                 T10221039 FZRANO =
2017-11-23 01:32 METAR KPQI 230632Z AUTO 32011G23KT 10SM OVC011 M02/M03 A2974 RMK AO2 FZRANO =
2017-11-23 00:56 METAR KPQI 230556Z AUTO 32013G23KT 10SM OVC009 M01/M02 A2973 RMK AO2 PK WND
                 32026/0543 SLP111 60008 T10061022 10006 21006 56006 FZRANO =
2017-11-23 00:44 METAR KPQI 230544Z AUTO 32018G26KT 10SM OVC009 M01/M02 A2972 RMK AO2 PK WND
                 32026/0543 FZRANO =
2017-11-22 23:56 METAR KPQI 230456Z AUTO 33015G23KT 10SM OVC011 00/M01 A2973 RMK AO2 SLP111
                 T00001011 400391050 FZRANO =
2017-11-22 23:04 METAR KPQI 230404Z AUTO 33014KT 10SM OVC011 01/M01 A2972 RMK AO2 FZRANO =
2017-11-22 22:56 METAR KPQI 230356Z AUTO 34013KT 10SM OVC009 01/M01 A2973 RMK AO2 CIG 008V013
                 SLP110 T00061006 FZRANO =
2017-11-22 21:56 METAR KPQI 230256Z AUTO 33012KT 10SM OVC007 01/00 A2975 RMK AO2 UPE02RAB02E34
                 PRESFR SLP117 P0000 60008 T00060000 56025 FZRANO =
2017-11-22 21:04 METAR KPQI 230204Z AUTO 33007KT 9SM -RA OVC009 01/00 A2975 RMK AO2 UPE02RAB02
                 CIG 005V012 PRESFR P0000 FZRANO =
2017-11-22 20:56 METAR KPQI 230156Z AUTO 34006KT 8SM UP OVC011 01/00 A2976 RMK AO2 UPB56SNE56 CIG
                 005V013 SLP124 P0002 T00060000 FZRANO =
2017-11-22 20:20 METAR KPQI 230120Z AUTO 33005KT 6SM -SN BR OVC013 00/M01 A2979 RMK AO2 P0001
                 FZRANO =
2017-11-22 20:07 METAR KPQI 230107Z AUTO 32005KT 4SM -SN BR OVC015 00/M01 A2979 RMK AO2 P0000
                 FZRANO =
2017-11-22 19:56 METAR KPQI 230056Z AUTO 34004KT 2 1/2SM -SN BR BKN015 OVC020 00/M01 A2980 RMK
                 AO2 VIS 1 3/4V4 SLP136 P0006 T00001006 FZRANO =
2017-11-22 19:24 METAR KPQI 230024Z AUTO 32003KT 2 1/2SM -SN BR SCT006 OVC017 01/M01 A2981 RMK
                 AO2 P0003 FZRANO =
2017-11-22 18:56 METAR KPQI 222356Z AUTO 31003KT 4SM -SN BR OVC006 01/01 A2982 RMK AO2
                 UPE09RAB09E45SNB45 CIG 005V010 SLP143 P0005 60020 T00060006 10039 20006 58006
                 FZRANO =
2017-11-22 18:47 METAR KPQI 222347Z AUTO 31003KT 5SM -SN BR BKN008 OVC014 01/01 A2982 RMK AO2
                 UPE09RAB09E45SNB45 CIG 005V011 P0004 FZRANO =
2017-11-22 18:35 METAR KPQI 222335Z AUTO 33003KT 4SM -RA BR FEW006 BKN013 OVC027 01/01 A2982 RMK
                 AO2 UPE09RAB09 P0003 FZRANO =
2017-11-22 18:24 METAR KPQI 222324Z AUTO 00000KT 5SM -RA BR FEW006 SCT014 OVC027 01/01 A2983 RMK
                 AO2 UPE09RAB09 P0003 FZRANO =
2017-11-22 17:56 METAR KPQI 222256Z AUTO 00000KT 5SM UP BR BKN018 OVC027 02/01 A2983 RMK AO2
                 RAE14UPB14 SLP147 P0007 T00170011 FZRANO =
2017-11-22 16:56 METAR KPQI 222156Z AUTO 33004KT 8SM -RA OVC018 02/01 A2984 RMK AO2 SLP149 P0005
                 T00170011 FZRANO =
2017-11-22 16:16 METAR KPQI 222116Z AUTO 34005KT 9SM -RA BKN020 OVC030 02/02 A2984 RMK AO2 P0001
                 FZRANO =
2017-11-22 15:56 METAR KPQI 222056Z AUTO 35003KT 5SM -RA BR FEW022 OVC033 02/01 A2984 RMK AO2
                 SLP149 P0003 60003 T00220011 58017 FZRANO =
2017-11-22 14:56 METAR KPQI 221956Z AUTO 00000KT 10SM -RA OVC045 03/02 A2986 RMK AO2 SLP156 P0000
                 T00280017 =
2017-11-22 13:56 METAR KPQI 221856Z AUTO 20003KT 10SM -RA OVC050 04/02 A2988 RMK AO2 RAB49 SLP162
                 P0000 T00390017 =

Support USWX by starting your Amazon purchase here.